Time;durP1;ratioP1;P1;durP2;ratioP2;P2;SDS_P1;SDS_P2;PMS_P1;PMS_P2;Temp;Humidity;BMP_temperature;BMP_pressure;BME280_temperature;BME280_humidity;BME280_pressure;Samples;Min_cycle;Max_cycle;Signal;HPM_P1;HPM_P2
2022/08/26 00:01:43;;;;;;;31.73;28.98;;;18.90;99.90;;;;;;4995103;28;19961;-74
2022/08/26 00:04:11;;;;;;;33.13;29.58;;;18.90;99.90;;;;;;4979766;28;20149;-74
2022/08/26 00:06:38;;;;;;;33.53;30.08;;;19.00;99.90;;;;;;5005761;28;20208;-74
2022/08/26 00:09:13;;;;;;;32.65;29.60;;;19.10;99.90;;;;;;4994296;28;20047;-74
2022/08/26 00:11:43;;;;;;;33.97;30.10;;;19.10;99.90;;;;;;4989249;28;20134;-74
2022/08/26 00:14:12;;;;;;;33.63;30.27;;;19.00;99.90;;;;;;4995114;28;20045;-74
2022/08/26 00:16:39;;;;;;;34.22;30.90;;;19.00;99.90;;;;;;4993618;28;20050;-74
2022/08/26 00:19:15;;;;;;;33.83;30.70;;;19.00;99.90;;;;;;5009458;28;20123;-74
2022/08/26 00:21:42;;;;;;;33.70;30.80;;;19.10;99.90;;;;;;5008218;28;20044;-74
2022/08/26 00:24:09;;;;;;;33.92;30.77;;;19.10;99.90;;;;;;5012926;28;20132;-74
2022/08/26 00:26:37;;;;;;;33.80;30.33;;;19.10;99.90;;;;;;5008427;28;20109;-74
2022/08/26 00:29:07;;;;;;;32.90;29.63;;;19.00;99.90;;;;;;5007966;28;20374;-74
2022/08/26 00:31:35;;;;;;;34.20;30.83;;;19.10;99.90;;;;;;5006876;28;20095;-74
2022/08/26 00:34:03;;;;;;;33.85;30.85;;;19.10;99.90;;;;;;4993864;28;20137;-74
2022/08/26 00:36:30;;;;;;;34.13;30.77;;;19.10;99.90;;;;;;4985366;28;20515;-76
2022/08/26 00:38:57;;;;;;;33.30;29.98;;;19.10;99.90;;;;;;4988475;28;20308;-74
2022/08/26 00:41:24;;;;;;;35.60;32.13;;;19.10;99.90;;;;;;5009922;28;20080;-75
2022/08/26 00:43:51;;;;;;;34.25;31.00;;;19.20;99.90;;;;;;4996482;28;20076;-76
2022/08/26 00:46:24;;;;;;;33.95;30.35;;;19.10;99.90;;;;;;5013869;28;20127;-76
2022/08/26 00:48:56;;;;;;;34.83;30.73;;;19.10;99.90;;;;;;4996347;28;20141;-75
2022/08/26 00:51:26;;;;;;;34.95;30.75;;;19.10;99.90;;;;;;5008763;28;20103;-75
2022/08/26 00:54:04;;;;;;;35.60;32.42;;;19.00;99.90;;;;;;4990327;28;20057;-75
2022/08/26 00:56:51;;;;;;;33.60;30.40;;;19.10;99.90;;;;;;4995544;28;20091;-75
2022/08/26 00:59:19;;;;;;;32.70;29.55;;;19.10;99.90;;;;;;4988388;28;20354;-75
2022/08/26 01:01:46;;;;;;;34.55;31.27;;;19.10;99.90;;;;;;4995698;28;20041;-75
2022/08/26 01:04:18;;;;;;;34.72;31.15;;;19.20;99.90;;;;;;4994179;28;20053;-74
2022/08/26 01:06:47;;;;;;;33.25;29.85;;;19.10;99.90;;;;;;5007303;28;20064;-75
2022/08/26 01:09:15;;;;;;;34.30;30.65;;;19.00;99.90;;;;;;5005171;28;20520;-74
2022/08/26 01:11:43;;;;;;;36.38;32.47;;;19.10;99.90;;;;;;4978314;28;20132;-75
2022/08/26 01:14:13;;;;;;;34.38;30.77;;;19.20;99.90;;;;;;4986910;28;20111;-74
2022/08/26 01:16:39;;;;;;;36.42;30.25;;;19.30;99.90;;;;;;4999185;28;20049;-74
2022/08/26 01:19:44;;;;;;;37.72;29.42;;;19.30;99.90;;;;;;5005068;28;20423;-75
2022/08/26 01:22:20;;;;;;;35.60;30.00;;;19.40;99.90;;;;;;4975845;28;20037;-75
2022/08/26 01:24:54;;;;;;;31.65;28.25;;;19.50;99.90;;;;;;5005426;28;20494;-75
2022/08/26 01:27:22;;;;;;;33.67;28.92;;;19.60;99.90;;;;;;5002292;28;20045;-74
2022/08/26 01:29:50;;;;;;;33.65;30.10;;;19.60;99.90;;;;;;4987578;28;20133;-75
2022/08/26 01:32:21;;;;;;;46.80;32.50;;;19.60;99.90;;;;;;4984068;28;20073;-75
2022/08/26 01:34:49;;;;;;;33.50;30.08;;;19.60;99.90;;;;;;5010537;28;20441;-75
2022/08/26 01:37:20;;;;;;;35.33;31.67;;;19.50;99.90;;;;;;5013470;28;20264;-75
2022/08/26 01:39:50;;;;;;;36.75;32.90;;;19.40;99.90;;;;;;5013837;28;20072;-75
2022/08/26 01:42:19;;;;;;;35.75;32.13;;;19.40;99.90;;;;;;4996675;28;20449;-74
2022/08/26 01:44:50;;;;;;;36.78;32.13;;;19.30;99.90;;;;;;5012564;28;20061;-75
2022/08/26 01:47:20;;;;;;;35.85;31.55;;;19.30;99.90;;;;;;5002846;28;20056;-74
2022/08/26 01:49:50;;;;;;;36.28;32.75;;;19.10;99.90;;;;;;5004982;28;20072;-75
2022/08/26 01:52:25;;;;;;;36.92;33.08;;;19.00;99.90;;;;;;4992549;28;20041;-75
2022/08/26 01:54:55;;;;;;;36.30;32.63;;;19.00;99.90;;;;;;5012640;28;20038;-75
2022/08/26 01:57:24;;;;;;;36.70;33.33;;;19.00;99.90;;;;;;4989802;28;20045;-75
2022/08/26 01:59:56;;;;;;;37.38;33.47;;;18.90;99.90;;;;;;4976042;28;20066;-75
2022/08/26 02:02:23;;;;;;;38.05;34.30;;;18.90;99.90;;;;;;4992864;28;21234;-75
2022/08/26 02:04:56;;;;;;;37.42;34.05;;;18.90;99.90;;;;;;4990307;28;20392;-74
2022/08/26 02:07:25;;;;;;;36.08;32.58;;;18.90;99.90;;;;;;4988003;28;20084;-75
2022/08/26 02:09:52;;;;;;;37.30;33.42;;;18.80;99.90;;;;;;4990624;28;20401;-75
2022/08/26 02:12:20;;;;;;;37.42;33.03;;;18.80;99.90;;;;;;4993510;28;20041;-74
2022/08/26 02:14:52;;;;;;;35.53;32.42;;;18.80;99.90;;;;;;5014127;28;20124;-74
2022/08/26 02:17:23;;;;;;;36.63;33.08;;;18.80;99.90;;;;;;4980682;28;20442;-75
2022/08/26 02:19:50;;;;;;;37.30;33.38;;;18.70;99.90;;;;;;5007742;28;20288;-75
2022/08/26 02:22:19;;;;;;;35.90;32.75;;;18.70;99.90;;;;;;5011467;28;20129;-75
2022/08/26 02:24:55;;;;;;;37.75;33.78;;;18.60;99.90;;;;;;4991940;28;20080;-75
2022/08/26 02:27:28;;;;;;;36.35;32.95;;;18.50;99.90;;;;;;4984227;28;20042;-75
2022/08/26 02:30:17;;;;;;;39.08;34.20;;;18.40;99.90;;;;;;4985934;28;20084;-74
2022/08/26 02:32:45;;;;;;;38.40;34.58;;;18.30;99.90;;;;;;4996346;28;20049;-74
2022/08/26 02:35:15;;;;;;;36.95;33.53;;;18.30;99.90;;;;;;5007843;28;20050;-75
2022/08/26 02:37:46;;;;;;;36.72;33.40;;;18.40;99.90;;;;;;4994840;28;20049;-74
2022/08/26 02:40:20;;;;;;;37.42;33.90;;;18.40;99.90;;;;;;4990973;28;20056;-74
2022/08/26 02:42:48;;;;;;;37.15;33.60;;;18.40;99.90;;;;;;4993674;28;20047;-75
2022/08/26 02:45:19;;;;;;;37.35;33.50;;;18.40;99.90;;;;;;4994425;28;20120;-74
2022/08/26 02:47:50;;;;;;;36.22;32.35;;;18.40;99.90;;;;;;5014575;28;20056;-75
2022/08/26 02:50:18;;;;;;;37.88;34.03;;;18.30;99.90;;;;;;4989754;28;20073;-74
2022/08/26 02:52:47;;;;;;;36.97;33.55;;;18.30;99.90;;;;;;5010662;28;20046;-75
2022/08/26 02:55:14;;;;;;;36.60;32.80;;;18.40;99.90;;;;;;5011102;28;20066;-74
2022/08/26 02:57:41;;;;;;;38.95;34.78;;;18.40;99.90;;;;;;4989062;28;20117;-74
2022/08/26 03:00:10;;;;;;;35.67;32.15;;;18.50;99.90;;;;;;5032826;22;20071;-77
2022/08/26 03:02:37;;;;;;;35.22;31.65;;;18.50;99.90;;;;;;4987670;28;20275;-75
2022/08/26 03:05:04;;;;;;;35.05;31.40;;;18.40;99.90;;;;;;5012013;28;20045;-74
2022/08/26 03:07:31;;;;;;;36.28;32.53;;;18.40;99.90;;;;;;5002203;28;20045;-75
2022/08/26 03:09:58;;;;;;;36.47;32.88;;;18.50;99.90;;;;;;4995402;28;20101;-74
2022/08/26 03:12:24;;;;;;;37.95;32.30;;;18.50;99.90;;;;;;5000281;28;20045;-75
2022/08/26 03:14:52;;;;;;;37.05;33.28;;;18.50;99.90;;;;;;5011607;28;20045;-75
2022/08/26 03:17:19;;;;;;;37.72;34.03;;;18.50;99.90;;;;;;5018708;28;20098;-74
2022/08/26 03:19:46;;;;;;;37.45;33.58;;;18.40;99.90;;;;;;4999054;28;20053;-74
2022/08/26 03:22:18;;;;;;;37.42;33.60;;;18.50;99.90;;;;;;4998432;28;20107;-74
2022/08/26 03:24:46;;;;;;;35.92;32.35;;;18.40;99.90;;;;;;5006268;28;20076;-74
2022/08/26 03:27:13;;;;;;;38.28;33.40;;;18.60;99.90;;;;;;4978430;28;20037;-74
2022/08/26 03:32:27;;;;;;;37.60;33.35;;;18.40;99.90;;;;;;5021263;28;20065;-74
2022/08/26 03:34:55;;;;;;;36.03;32.50;;;18.40;99.90;;;;;;4997847;28;20435;-75
2022/08/26 03:37:22;;;;;;;37.15;33.00;;;18.40;99.90;;;;;;5000273;28;20036;-75
2022/08/26 03:39:49;;;;;;;38.85;34.35;;;18.30;99.90;;;;;;4996296;28;20099;-74
2022/08/26 03:42:16;;;;;;;39.05;34.90;;;18.30;99.90;;;;;;4983219;28;20073;-75
2022/08/26 03:44:47;;;;;;;40.15;36.03;;;18.30;99.90;;;;;;5000990;28;20046;-74
2022/08/26 03:47:14;;;;;;;38.47;34.75;;;18.20;99.90;;;;;;4994981;28;20519;-75
2022/08/26 03:49:41;;;;;;;39.53;34.80;;;18.20;99.90;;;;;;5002158;28;20132;-74
2022/08/26 03:52:09;;;;;;;37.72;33.67;;;18.20;99.90;;;;;;4978883;28;20631;-74
2022/08/26 03:54:40;;;;;;;39.15;35.38;;;18.10;99.90;;;;;;4998076;28;20137;-74
2022/08/26 03:57:09;;;;;;;38.13;34.13;;;18.20;99.90;;;;;;4989940;28;20037;-74
2022/08/26 03:59:35;;;;;;;40.42;35.75;;;18.20;99.90;;;;;;5015865;28;20045;-74
2022/08/26 04:02:02;;;;;;;43.95;36.30;;;18.00;99.90;;;;;;5005912;28;20063;-75
2022/08/26 04:04:37;;;;;;;37.35;33.80;;;17.90;99.90;;;;;;5014234;28;20041;-75
2022/08/26 04:07:04;;;;;;;38.40;32.70;;;17.90;99.90;;;;;;5000436;28;20081;-75
2022/08/26 04:09:30;;;;;;;37.67;33.65;;;17.80;99.90;;;;;;5001328;28;20046;-75
2022/08/26 04:12:02;;;;;;;37.33;33.63;;;17.70;99.90;;;;;;4994329;28;20072;-74
2022/08/26 04:14:29;;;;;;;37.95;34.47;;;17.70;99.90;;;;;;5000995;28;20072;-74
2022/08/26 04:16:57;;;;;;;42.03;37.75;;;17.70;99.90;;;;;;5018629;28;20418;-75
2022/08/26 04:19:25;;;;;;;40.85;36.47;;;17.80;99.90;;;;;;5018369;28;20049;-74
2022/08/26 04:21:52;;;;;;;39.95;35.63;;;17.70;99.90;;;;;;4995069;28;20100;-75
2022/08/26 04:24:21;;;;;;;38.05;34.35;;;17.80;99.90;;;;;;5001586;28;20120;-75
2022/08/26 04:26:49;;;;;;;46.10;34.55;;;18.00;99.90;;;;;;5017643;28;20518;-77
2022/08/26 04:29:19;;;;;;;37.85;33.35;;;18.00;99.90;;;;;;4998522;28;20492;-75
2022/08/26 04:31:49;;;;;;;41.88;34.17;;;17.90;99.90;;;;;;4999618;28;20115;-74
2022/08/26 04:34:23;;;;;;;37.50;33.58;;;17.90;99.90;;;;;;5011596;28;20049;-74
2022/08/26 04:36:52;;;;;;;37.15;33.25;;;18.00;99.90;;;;;;5010903;28;20048;-74
2022/08/26 04:39:19;;;;;;;37.78;33.13;;;17.90;99.90;;;;;;5004287;28;20046;-74
2022/08/26 04:41:50;;;;;;;40.25;33.55;;;18.00;99.90;;;;;;5017421;28;20490;-76
2022/08/26 04:44:20;;;;;;;37.33;33.75;;;18.10;99.90;;;;;;5011582;28;20088;-75
2022/08/26 04:46:47;;;;;;;39.63;35.50;;;18.20;99.90;;;;;;5001393;28;20048;-74
2022/08/26 04:49:14;;;;;;;39.83;35.28;;;18.10;99.90;;;;;;5000556;28;20195;-74
2022/08/26 04:51:41;;;;;;;40.30;32.00;;;18.10;99.90;;;;;;5018060;28;20103;-74
2022/08/26 04:54:09;;;;;;;36.20;32.45;;;18.20;99.90;;;;;;5015915;28;20130;-74
2022/08/26 04:56:39;;;;;;;36.28;31.55;;;18.40;99.90;;;;;;4999631;28;20350;-74
2022/08/26 04:59:08;;;;;;;43.40;31.88;;;18.40;99.90;;;;;;4994020;28;20045;-74
2022/08/26 05:01:47;;;;;;;37.13;30.52;;;18.50;99.90;;;;;;5008993;28;20042;-75
2022/08/26 05:04:15;;;;;;;36.45;33.08;;;18.50;99.90;;;;;;5006975;28;20041;-74
2022/08/26 05:06:46;;;;;;;41.50;34.53;;;18.60;99.90;;;;;;4990343;28;20038;-75
2022/08/26 05:09:13;;;;;;;40.25;33.67;;;18.70;99.90;;;;;;5009989;28;20053;-75
2022/08/26 05:11:41;;;;;;;36.22;32.78;;;18.70;99.90;;;;;;5017299;28;20068;-77
2022/08/26 05:14:08;;;;;;;38.28;32.95;;;18.70;99.90;;;;;;5016435;28;20570;-74
2022/08/26 05:16:35;;;;;;;36.55;32.15;;;18.80;99.90;;;;;;5012215;28;20575;-75
2022/08/26 05:19:03;;;;;;;35.80;32.33;;;18.90;99.90;;;;;;4989159;28;20103;-75
2022/08/26 05:21:30;;;;;;;35.28;31.33;;;18.70;99.90;;;;;;5015245;28;20034;-75
2022/08/26 05:23:57;;;;;;;37.40;33.22;;;18.70;99.90;;;;;;4997891;28;20136;-75
2022/08/26 05:26:28;;;;;;;39.38;32.03;;;18.70;99.90;;;;;;4990093;28;20410;-77
2022/08/26 05:28:56;;;;;;;35.55;31.08;;;18.70;99.90;;;;;;5012257;28;20080;-76
2022/08/26 05:31:32;;;;;;;38.22;32.65;;;18.70;99.90;;;;;;5014398;28;20045;-75
2022/08/26 05:34:01;;;;;;;34.63;31.20;;;18.80;99.90;;;;;;5017074;28;20049;-75
2022/08/26 05:36:32;;;;;;;36.28;32.45;;;18.80;99.90;;;;;;4999455;28;20033;-75
2022/08/26 05:39:01;;;;;;;37.15;33.38;;;18.80;99.90;;;;;;5017965;28;20428;-74
2022/08/26 05:41:31;;;;;;;39.63;31.98;;;18.90;99.90;;;;;;4966354;28;20590;-74
2022/08/26 05:44:00;;;;;;;35.60;32.03;;;18.80;99.90;;;;;;4998239;28;20515;-75
2022/08/26 05:46:28;;;;;;;36.47;32.83;;;18.90;99.90;;;;;;4995446;28;20053;-75
2022/08/26 05:48:56;;;;;;;35.78;31.38;;;19.10;99.90;;;;;;4996177;28;20049;-75
2022/08/26 05:51:24;;;;;;;39.35;32.33;;;19.20;99.90;;;;;;5008995;28;20410;-75
2022/08/26 05:53:52;;;;;;;36.58;32.78;;;19.20;99.90;;;;;;5013885;28;20045;-75
2022/08/26 05:56:23;;;;;;;35.83;30.85;;;19.30;99.90;;;;;;5012297;28;20037;-75
2022/08/26 05:58:51;;;;;;;35.30;31.50;;;19.30;99.90;;;;;;5005931;28;20527;-75
2022/08/26 06:01:24;;;;;;;38.97;30.88;;;19.40;99.90;;;;;;5001918;28;20107;-75
2022/08/26 06:03:57;;;;;;;36.78;30.98;;;19.60;99.90;;;;;;4999107;28;20044;-75
2022/08/26 06:06:30;;;;;;;35.83;31.73;;;19.70;99.90;;;;;;5007949;28;20078;-74
2022/08/26 06:08:59;;;;;;;34.75;31.27;;;20.00;99.90;;;;;;5014977;28;20416;-75
2022/08/26 06:11:29;;;;;;;34.05;30.95;;;20.10;99.90;;;;;;5015181;28;20111;-75
2022/08/26 06:13:58;;;;;;;35.40;31.83;;;20.30;99.90;;;;;;4996201;28;20054;-75
2022/08/26 06:16:32;;;;;;;36.65;32.83;;;20.30;99.90;;;;;;4998759;28;20392;-75
2022/08/26 06:19:01;;;;;;;37.58;33.53;;;20.50;99.90;;;;;;4994516;28;20083;-77
2022/08/26 06:21:34;;;;;;;35.45;31.80;;;20.50;99.90;;;;;;5017090;28;20038;-75
2022/08/26 06:27:01;;;;;;;35.80;32.33;;;20.70;99.90;;;;;;5014668;28;20081;-77
2022/08/26 06:29:32;;;;;;;34.92;30.73;;;20.80;99.90;;;;;;5013104;28;20037;-76
2022/08/26 06:32:00;;;;;;;37.83;33.28;;;20.90;99.90;;;;;;4993259;28;20141;-76
2022/08/26 06:34:27;;;;;;;36.65;32.78;;;21.00;99.90;;;;;;5012906;28;20543;-75
2022/08/26 06:36:58;;;;;;;37.15;33.35;;;21.20;99.90;;;;;;5016268;28;20049;-75
2022/08/26 06:39:25;;;;;;;37.60;33.50;;;21.40;99.90;;;;;;4994585;28;20121;-76
2022/08/26 06:41:52;;;;;;;35.35;31.80;;;21.50;99.90;;;;;;5009856;28;20045;-77
2022/08/26 06:44:19;;;;;;;35.55;32.05;;;21.60;99.90;;;;;;5015874;28;20124;-77
2022/08/26 06:46:47;;;;;;;36.17;32.60;;;21.70;99.90;;;;;;5020795;28;20056;-77
2022/08/26 06:49:16;;;;;;;36.20;32.45;;;21.80;99.90;;;;;;5020053;28;20435;-75
2022/08/26 06:51:43;;;;;;;37.08;33.22;;;22.10;99.90;;;;;;5018681;28;20548;-75
2022/08/26 06:54:10;;;;;;;35.95;32.65;;;22.40;99.90;;;;;;4998372;28;20060;-75
2022/08/26 06:56:42;;;;;;;37.17;33.08;;;22.70;99.90;;;;;;5014946;28;20034;-76
2022/08/26 06:59:10;;;;;;;37.45;33.00;;;23.10;99.90;;;;;;4998457;28;20047;-76
2022/08/26 07:01:43;;;;;;;36.72;33.17;;;23.40;99.90;;;;;;5019400;28;20412;-76
2022/08/26 07:04:13;;;;;;;35.03;31.63;;;23.50;99.90;;;;;;4996688;28;20041;-76
2022/08/26 07:06:47;;;;;;;33.33;30.55;;;23.60;99.90;;;;;;5001391;28;20107;-75
2022/08/26 07:09:15;;;;;;;35.05;31.55;;;23.60;99.90;;;;;;5001081;28;20054;-77
2022/08/26 07:11:43;;;;;;;35.33;32.00;;;23.50;99.90;;;;;;5001835;28;20042;-75
2022/08/26 07:14:11;;;;;;;33.42;30.52;;;23.70;99.90;;;;;;5015321;28;20567;-77
2022/08/26 07:16:40;;;;;;;33.78;30.50;;;23.70;99.90;;;;;;5019708;28;20539;-77
2022/08/26 07:19:07;;;;;;;33.15;30.40;;;23.80;99.90;;;;;;5009935;28;20510;-77
2022/08/26 07:21:39;;;;;;;32.75;29.83;;;24.00;99.90;;;;;;5012741;28;20033;-77
2022/08/26 07:24:05;;;;;;;33.22;30.45;;;24.10;99.90;;;;;;4993486;28;20087;-77
2022/08/26 07:26:32;;;;;;;34.28;31.35;;;24.40;99.90;;;;;;4983298;28;20045;-75
2022/08/26 07:29:00;;;;;;;35.33;32.25;;;24.60;99.90;;;;;;4991898;28;20563;-77
2022/08/26 07:31:30;;;;;;;36.05;33.25;;;24.50;99.90;;;;;;4999196;28;20495;-77
2022/08/26 07:34:08;;;;;;;37.63;34.00;;;24.30;99.90;;;;;;5016589;28;20506;-77
2022/08/26 07:36:35;;;;;;;37.08;33.78;;;24.20;99.90;;;;;;5009811;28;20551;-77
2022/08/26 07:39:02;;;;;;;38.17;35.10;;;24.20;99.90;;;;;;5011296;28;20045;-77
2022/08/26 07:41:29;;;;;;;36.42;33.42;;;24.10;99.90;;;;;;4999776;28;20041;-77
2022/08/26 07:44:01;;;;;;;39.20;35.97;;;23.80;99.90;;;;;;5000943;28;20038;-77
2022/08/26 07:46:30;;;;;;;39.47;36.05;;;23.70;99.90;;;;;;5018740;28;20042;-77
2022/08/26 07:48:57;;;;;;;40.38;37.17;;;23.70;99.90;;;;;;4998551;28;20132;-77
2022/08/26 07:51:25;;;;;;;41.90;38.28;;;23.60;99.90;;;;;;4992264;28;20076;-77
2022/08/26 07:53:53;;;;;;;41.20;37.88;;;23.70;99.90;;;;;;5012953;28;20037;-77
2022/08/26 07:56:21;;;;;;;41.08;37.53;;;23.80;99.90;;;;;;5016662;28;20511;-77
2022/08/26 07:58:52;;;;;;;41.85;38.10;;;23.80;99.90;;;;;;5018697;28;20097;-75
2022/08/26 08:01:22;;;;;;;40.50;37.03;;;23.90;99.90;;;;;;5015456;28;20104;-75
2022/08/26 08:03:50;;;;;;;42.55;39.20;;;23.90;99.90;;;;;;5000687;28;20391;-75
2022/08/26 08:06:24;;;;;;;42.70;39.22;;;24.00;99.90;;;;;;5013771;28;21340;-76
2022/08/26 08:08:54;;;;;;;41.88;38.33;;;24.10;99.90;;;;;;4989189;28;20149;-76
2022/08/26 08:11:22;;;;;;;41.20;37.47;;;24.40;99.90;;;;;;5014038;28;20068;-75
2022/08/26 08:13:50;;;;;;;43.03;39.38;;;24.80;99.90;;;;;;5014876;28;20045;-75
2022/08/26 08:16:27;;;;;;;42.92;39.47;;;25.00;99.90;;;;;;5012764;28;20045;-75
2022/08/26 08:18:57;;;;;;;44.85;41.25;;;25.30;99.90;;;;;;5013406;28;20137;-75
2022/08/26 08:21:25;;;;;;;42.92;39.63;;;25.40;99.90;;;;;;4996734;28;20038;-75
2022/08/26 08:23:54;;;;;;;46.47;42.55;;;25.50;99.90;;;;;;4995833;28;20456;-75
2022/08/26 08:26:22;;;;;;;46.10;42.08;;;25.60;99.90;;;;;;4990391;28;20115;-75
2022/08/26 08:28:49;;;;;;;46.40;42.60;;;25.50;99.90;;;;;;5010510;28;20045;-75
2022/08/26 08:31:21;;;;;;;47.10;43.22;;;25.40;99.90;;;;;;5013564;28;20762;-75
2022/08/26 08:34:10;;;;;;;47.67;43.30;;;25.00;99.90;;;;;;5008508;28;20055;-75
2022/08/26 08:36:37;;;;;;;48.85;44.47;;;25.00;99.90;;;;;;5011335;28;20065;-75
2022/08/26 08:39:04;;;;;;;47.30;43.58;;;25.30;99.90;;;;;;5012813;28;20049;-76
2022/08/26 08:41:58;;;;;;;49.00;44.90;;;25.30;99.90;;;;;;5014615;28;20237;-76
2022/08/26 08:44:25;;;;;;;49.95;45.67;;;25.40;99.90;;;;;;5015572;28;20059;-76
2022/08/26 08:47:00;;;;;;;49.42;44.80;;;25.50;99.90;;;;;;4997265;28;20056;-75
2022/08/26 08:49:29;;;;;;;50.85;46.50;;;25.90;99.90;;;;;;5014640;28;20880;-76
2022/08/26 08:52:08;;;;;;;50.92;46.42;;;25.90;99.90;;;;;;5001209;28;20073;-76
2022/08/26 08:54:37;;;;;;;50.90;46.08;;;26.20;99.90;;;;;;5012506;28;20130;-76
2022/08/26 08:57:36;;;;;;;51.15;46.47;;;26.30;99.90;;;;;;4996336;28;20050;-76
2022/08/26 09:00:16;;;;;;;51.67;47.22;;;26.30;99.90;;;;;;4986676;28;20469;-75
2022/08/26 09:02:51;;;;;;;53.97;49.05;;;26.40;99.90;;;;;;5036419;23;20580;-79
2022/08/26 09:05:44;;;;;;;;;;;26.20;99.90;;;;;;4986502;28;20155;-79
2022/08/26 09:08:26;;;;;;;56.65;51.55;;;26.40;99.90;;;;;;5010226;28;20280;-77
2022/08/26 09:10:59;;;;;;;56.97;51.88;;;26.10;99.90;;;;;;5001435;28;20045;-79
2022/08/26 09:13:28;;;;;;;57.80;52.78;;;26.10;99.90;;;;;;4972313;28;20049;-78
2022/08/26 09:16:19;;;;;;;57.08;52.17;;;26.00;99.90;;;;;;4991527;28;20065;-78
2022/08/26 09:19:14;;;;;;;56.70;51.72;;;26.30;99.90;;;;;;5000044;28;20045;-80
2022/08/26 09:21:45;;;;;;;60.17;54.97;;;26.40;99.90;;;;;;5008102;28;20038;-82
2022/08/26 09:24:19;;;;;;;60.75;55.30;;;26.40;99.90;;;;;;4984939;28;20073;-78
2022/08/26 09:26:48;;;;;;;61.42;56.03;;;26.30;99.90;;;;;;5003555;28;20034;-80
2022/08/26 09:29:23;;;;;;;63.85;57.65;;;26.30;99.90;;;;;;4967346;28;20137;-81
2022/08/26 09:32:11;;;;;;;61.97;56.53;;;26.40;99.90;;;;;;4988489;28;20049;-81
2022/08/26 09:34:58;;;;;;;63.67;58.33;;;26.40;99.90;;;;;;4980132;28;20137;-78
2022/08/26 09:37:38;;;;;;;64.80;58.95;;;26.40;99.90;;;;;;4985661;28;20061;-78
2022/08/26 09:40:25;;;;;;;63.97;58.13;;;26.30;99.90;;;;;;4985318;28;20854;-79
2022/08/26 09:43:05;;;;;;;65.43;59.42;;;26.60;99.90;;;;;;4986967;28;20343;-79
2022/08/26 09:45:33;;;;;;;64.22;58.10;;;26.80;99.90;;;;;;4992468;28;20052;-79
2022/08/26 09:48:01;;;;;;;63.75;58.30;;;26.80;99.90;;;;;;4974925;28;20072;-78
2022/08/26 09:50:36;;;;;;;66.72;60.75;;;26.70;99.90;;;;;;4988818;28;20073;-80
2022/08/26 09:53:08;;;;;;;61.55;56.10;;;26.50;99.90;;;;;;4975822;28;20061;-78
2022/08/26 09:55:44;;;;;;;65.60;59.53;;;26.60;99.90;;;;;;4983701;28;20475;-79
2022/08/26 09:58:34;;;;;;;67.38;61.42;;;26.50;99.90;;;;;;4990096;28;20042;-81
2022/08/26 10:01:07;;;;;;;62.30;56.75;;;26.70;99.90;;;;;;4988273;28;20044;-81
2022/08/26 10:03:36;;;;;;;59.00;53.83;;;26.80;99.90;;;;;;4979236;28;20061;-79
2022/08/26 10:06:27;;;;;;;63.70;58.17;;;27.10;99.90;;;;;;5011035;28;20046;-79
2022/08/26 10:08:57;;;;;;;65.97;60.25;;;27.30;99.90;;;;;;4977318;28;20269;-79
2022/08/26 10:11:48;;;;;;;64.80;58.70;;;27.30;99.90;;;;;;4972509;28;20058;-79
2022/08/26 10:14:38;;;;;;;62.78;57.08;;;27.20;99.90;;;;;;4971670;28;20335;-79
2022/08/26 10:17:05;;;;;;;66.43;60.05;;;27.30;99.90;;;;;;4970912;28;20042;-80
2022/08/26 10:19:47;;;;;;;70.78;63.85;;;27.10;99.90;;;;;;4975896;28;20140;-80
2022/08/26 10:22:41;;;;;;;64.57;58.78;;;26.70;99.90;;;;;;4974666;28;20097;-79
2022/08/26 10:25:14;;;;;;;64.35;58.35;;;26.80;99.90;;;;;;4980698;28;20250;-79
2022/08/26 10:28:16;;;;;;;62.15;56.45;;;27.10;99.90;;;;;;4989962;28;20057;-79
2022/08/26 10:30:54;;;;;;;56.30;50.97;;;27.20;99.90;;;;;;4963267;28;20475;-79
2022/08/26 10:33:23;;;;;;;58.70;53.47;;;27.20;99.90;;;;;;4977104;28;20049;-79
2022/08/26 10:36:04;;;;;;;58.67;53.40;;;27.20;99.90;;;;;;4985878;28;20488;-80
2022/08/26 10:38:36;;;;;;;62.15;56.25;;;27.20;99.90;;;;;;4994173;28;20041;-79
2022/08/26 10:41:11;;;;;;;62.78;56.90;;;26.80;99.90;;;;;;4987871;28;20551;-80
2022/08/26 10:43:50;;;;;;;62.83;56.25;;;26.60;99.90;;;;;;4987406;28;20042;-78
2022/08/26 10:46:22;;;;;;;61.90;56.55;;;26.80;99.90;;;;;;4988763;28;20034;-79
2022/08/26 10:48:53;;;;;;;61.35;56.03;;;27.20;99.90;;;;;;4988442;28;20061;-80
2022/08/26 10:51:30;;;;;;;63.08;56.92;;;27.40;99.90;;;;;;4972386;28;20046;-79
2022/08/26 10:53:58;;;;;;;63.38;57.38;;;27.50;99.90;;;;;;5007098;28;20046;-79
2022/08/26 10:56:43;;;;;;;63.20;57.53;;;27.70;99.90;;;;;;4973560;28;20671;-79
2022/08/26 10:59:27;;;;;;;62.47;56.92;;;27.90;99.90;;;;;;4995572;28;20096;-79
2022/08/26 11:02:16;;;;;;;66.30;60.10;;;28.10;99.90;;;;;;4973497;28;20112;-79
2022/08/26 11:05:03;;;;;;;61.92;56.50;;;28.10;99.90;;;;;;4990037;28;20048;-79
2022/08/26 11:07:33;;;;;;;61.30;55.80;;;28.20;99.90;;;;;;4975755;28;20128;-78
2022/08/26 11:10:07;;;;;;;61.13;55.70;;;28.00;99.90;;;;;;4968917;28;20046;-79
2022/08/26 11:12:33;;;;;;;66.55;60.40;;;27.90;99.90;;;;;;4979492;28;20423;-80
2022/08/26 11:15:19;;;;;;;68.45;61.75;;;27.80;99.90;;;;;;4984193;28;20060;-80
2022/08/26 11:17:50;;;;;;;65.40;59.20;;;27.80;99.90;;;;;;4977980;28;20054;-80
2022/08/26 11:20:27;;;;;;;72.13;65.32;;;27.90;99.90;;;;;;5004120;28;20073;-79
2022/08/26 11:22:55;;;;;;;66.57;60.20;;;28.10;99.90;;;;;;4978915;28;20038;-81
2022/08/26 11:25:25;;;;;;;63.70;57.88;;;27.90;99.90;;;;;;4982305;28;20132;-79
2022/08/26 11:27:58;;;;;;;67.82;61.35;;;28.10;99.90;;;;;;4992880;28;20061;-79
2022/08/26 11:30:37;;;;;;;64.65;58.47;;;28.00;99.90;;;;;;5003403;28;20419;-79
2022/08/26 11:33:06;;;;;;;67.78;61.60;;;28.20;99.90;;;;;;4970812;28;20724;-80
2022/08/26 11:35:34;;;;;;;71.22;64.45;;;28.30;99.90;;;;;;4972033;28;20038;-79
2022/08/26 11:38:28;;;;;;;69.07;62.65;;;28.20;99.90;;;;;;4978443;28;20092;-77
2022/08/26 11:41:08;;;;;;;68.03;61.50;;;28.00;99.90;;;;;;4970721;28;20050;-79
2022/08/26 11:43:37;;;;;;;73.60;66.57;;;27.90;99.90;;;;;;4993992;28;20042;-79
2022/08/26 11:46:10;;;;;;;70.55;64.18;;;27.70;99.90;;;;;;4972379;28;20439;-81
2022/08/26 11:48:40;;;;;;;72.70;65.65;;;27.50;99.90;;;;;;4976577;28;20054;-79
2022/08/26 11:51:21;;;;;;;76.22;68.75;;;27.60;99.90;;;;;;5003552;22;20128;-73
2022/08/26 11:53:48;;;;;;;83.47;75.03;;;27.60;99.90;;;;;;4977267;28;20057;-77
2022/08/26 11:56:24;;;;;;;78.60;70.78;;;27.60;99.90;;;;;;4975280;28;20453;-75
2022/08/26 11:58:55;;;;;;;81.80;73.38;;;27.40;99.90;;;;;;4966048;28;20069;-75
2022/08/26 12:01:34;;;;;;;80.32;72.20;;;27.60;99.90;;;;;;4992223;28;20115;-75
2022/08/26 12:04:09;;;;;;;81.63;73.30;;;27.90;99.90;;;;;;4992541;28;20046;-76
2022/08/26 12:06:46;;;;;;;79.32;71.43;;;27.90;99.90;;;;;;4969920;28;20572;-74
2022/08/26 12:09:26;;;;;;;77.40;69.75;;;27.80;99.90;;;;;;4966365;28;20056;-74
2022/08/26 12:12:10;;;;;;;74.43;67.35;;;27.90;99.90;;;;;;5000388;28;20510;-75
2022/08/26 12:14:38;;;;;;;73.47;66.35;;;28.00;99.90;;;;;;4995640;28;20058;-71
2022/08/26 12:17:16;;;;;;;74.38;67.25;;;27.90;99.90;;;;;;4994537;28;20065;-72
2022/08/26 12:19:45;;;;;;;76.80;69.35;;;27.90;99.90;;;;;;5006358;28;20467;-76
2022/08/26 12:22:20;;;;;;;69.65;63.00;;;27.50;99.90;;;;;;4964576;28;20302;-76
2022/08/26 12:24:51;;;;;;;73.18;66.15;;;27.80;99.90;;;;;;4982444;28;20345;-74
2022/08/26 12:27:30;;;;;;;70.45;63.55;;;27.80;99.90;;;;;;4994370;28;20414;-74
2022/08/26 12:30:03;;;;;;;69.80;63.22;;;27.80;99.90;;;;;;4998495;28;20052;-75
2022/08/26 12:32:33;;;;;;;;;;;27.90;99.90;;;;;;4981488;28;20067;-74
2022/08/26 12:35:03;;;;;;;68.22;61.80;;;27.90;99.90;;;;;;4998218;28;19927;-74
2022/08/26 12:37:40;;;;;;;67.28;60.92;;;27.70;99.90;;;;;;4998247;28;20048;-74
2022/08/26 12:40:27;;;;;;;;;;;27.90;99.90;;;;;;4978398;28;21176;-74
2022/08/26 12:43:00;;;;;;;65.90;59.67;;;28.10;99.90;;;;;;5001332;28;19956;-76
2022/08/26 12:45:41;;;;;;;72.22;64.97;;;28.20;99.90;;;;;;4994488;28;20107;-75
2022/08/26 12:48:33;;;;;;;70.82;63.58;;;28.10;99.90;;;;;;4998407;28;20144;-76
2022/08/26 12:51:01;;;;;;;69.03;61.70;;;28.40;99.90;;;;;;4991500;28;20046;-74
2022/08/26 12:53:32;;;;;;;68.03;61.45;;;28.50;99.90;;;;;;4982650;28;21714;-74
2022/08/26 12:56:03;;;;;;;65.75;59.40;;;28.70;99.90;;;;;;4968920;28;20053;-73
2022/08/26 12:58:38;;;;;;;72.60;65.30;;;28.70;99.90;;;;;;4978857;28;20418;-74